sensor_id;sensor_type;location;lat;lon;timestamp;temperature;humidity
5276;DHT22;2661;50.786;12.728;2023-07-30T00:01:37;15.00;99.90
5276;DHT22;2661;50.786;12.728;2023-07-30T00:04:04;14.90;99.90
5276;DHT22;2661;50.786;12.728;2023-07-30T00:06:30;15.00;99.90
5276;DHT22;2661;50.786;12.728;2023-07-30T00:08:57;15.00;99.90
5276;DHT22;2661;50.786;12.728;2023-07-30T00:11:23;15.00;99.90
5276;DHT22;2661;50.786;12.728;2023-07-30T00:13:50;15.10;99.90
5276;DHT22;2661;50.786;12.728;2023-07-30T00:16:17;15.10;99.90
5276;DHT22;2661;50.786;12.728;2023-07-30T00:18:43;15.10;99.90
5276;DHT22;2661;50.786;12.728;2023-07-30T00:21:10;15.20;99.90
5276;DHT22;2661;50.786;12.728;2023-07-30T00:23:37;15.20;99.90
5276;DHT22;2661;50.786;12.728;2023-07-30T00:26:03;15.30;99.90
5276;DHT22;2661;50.786;12.728;2023-07-30T00:28:30;15.30;99.90
5276;DHT22;2661;50.786;12.728;2023-07-30T00:30:57;15.20;99.90
5276;DHT22;2661;50.786;12.728;2023-07-30T00:33:23;15.30;99.90
5276;DHT22;2661;50.786;12.728;2023-07-30T00:35:51;15.30;99.90
5276;DHT22;2661;50.786;12.728;2023-07-30T00:38:18;15.40;99.90
5276;DHT22;2661;50.786;12.728;2023-07-30T00:40:45;15.40;99.90
5276;DHT22;2661;50.786;12.728;2023-07-30T00:43:11;15.40;99.90
5276;DHT22;2661;50.786;12.728;2023-07-30T00:45:38;15.40;99.90
5276;DHT22;2661;50.786;12.728;2023-07-30T00:48:06;15.40;99.90
5276;DHT22;2661;50.786;12.728;2023-07-30T00:50:33;15.40;99.90
5276;DHT22;2661;50.786;12.728;2023-07-30T00:52:59;15.40;99.90
5276;DHT22;2661;50.786;12.728;2023-07-30T00:55:26;15.30;99.90
5276;DHT22;2661;50.786;12.728;2023-07-30T00:57:53;15.30;99.90
5276;DHT22;2661;50.786;12.728;2023-07-30T01:00:19;15.30;99.90
5276;DHT22;2661;50.786;12.728;2023-07-30T01:02:46;15.30;99.90
5276;DHT22;2661;50.786;12.728;2023-07-30T01:05:13;15.20;99.90
5276;DHT22;2661;50.786;12.728;2023-07-30T01:07:40;15.30;99.90
5276;DHT22;2661;50.786;12.728;2023-07-30T01:10:06;15.30;99.90
5276;DHT22;2661;50.786;12.728;2023-07-30T01:12:33;15.20;99.90
5276;DHT22;2661;50.786;12.728;2023-07-30T01:15:00;15.20;99.90
5276;DHT22;2661;50.786;12.728;2023-07-30T01:17:27;15.20;99.90
5276;DHT22;2661;50.786;12.728;2023-07-30T01:19:54;15.20;99.90
5276;DHT22;2661;50.786;12.728;2023-07-30T01:22:22;15.20;99.90
5276;DHT22;2661;50.786;12.728;2023-07-30T01:24:49;15.20;99.90
5276;DHT22;2661;50.786;12.728;2023-07-30T01:27:29;15.30;99.90
5276;DHT22;2661;50.786;12.728;2023-07-30T01:32:32;15.30;99.90
5276;DHT22;2661;50.786;12.728;2023-07-30T01:35:00;15.30;99.90
5276;DHT22;2661;50.786;12.728;2023-07-30T01:37:27;15.30;99.90
5276;DHT22;2661;50.786;12.728;2023-07-30T01:39:54;15.30;99.90
5276;DHT22;2661;50.786;12.728;2023-07-30T01:42:21;15.30;99.90
5276;DHT22;2661;50.786;12.728;2023-07-30T01:44:48;15.40;99.90
5276;DHT22;2661;50.786;12.728;2023-07-30T01:47:14;15.40;99.90
5276;DHT22;2661;50.786;12.728;2023-07-30T01:49:41;15.40;99.90
5276;DHT22;2661;50.786;12.728;2023-07-30T01:52:07;15.40;99.90
5276;DHT22;2661;50.786;12.728;2023-07-30T01:54:34;15.40;99.90
5276;DHT22;2661;50.786;12.728;2023-07-30T01:57:01;15.40;99.90
5276;DHT22;2661;50.786;12.728;2023-07-30T01:59:28;15.40;99.90
5276;DHT22;2661;50.786;12.728;2023-07-30T02:01:54;15.30;99.90
5276;DHT22;2661;50.786;12.728;2023-07-30T02:04:21;15.30;99.90
5276;DHT22;2661;50.786;12.728;2023-07-30T02:06:47;15.30;99.90
5276;DHT22;2661;50.786;12.728;2023-07-30T02:09:15;15.30;99.90
5276;DHT22;2661;50.786;12.728;2023-07-30T02:11:41;15.30;94.80
5276;DHT22;2661;50.786;12.728;2023-07-30T02:14:08;15.30;99.90
5276;DHT22;2661;50.786;12.728;2023-07-30T02:16:35;15.30;99.90
5276;DHT22;2661;50.786;12.728;2023-07-30T02:19:03;15.30;99.90
5276;DHT22;2661;50.786;12.728;2023-07-30T02:21:29;15.40;99.90
5276;DHT22;2661;50.786;12.728;2023-07-30T02:23:59;15.40;99.90
5276;DHT22;2661;50.786;12.728;2023-07-30T02:26:25;15.40;99.90
5276;DHT22;2661;50.786;12.728;2023-07-30T02:28:52;15.40;99.90
5276;DHT22;2661;50.786;12.728;2023-07-30T02:31:18;15.40;99.90
5276;DHT22;2661;50.786;12.728;2023-07-30T02:33:45;15.40;99.90
5276;DHT22;2661;50.786;12.728;2023-07-30T02:36:12;15.30;99.90
5276;DHT22;2661;50.786;12.728;2023-07-30T02:38:38;15.40;99.90
5276;DHT22;2661;50.786;12.728;2023-07-30T02:41:05;15.40;99.90
5276;DHT22;2661;50.786;12.728;2023-07-30T02:43:32;15.30;99.90
5276;DHT22;2661;50.786;12.728;2023-07-30T02:45:58;15.40;99.90
5276;DHT22;2661;50.786;12.728;2023-07-30T02:48:25;15.30;99.90
5276;DHT22;2661;50.786;12.728;2023-07-30T02:50:51;15.30;99.90
5276;DHT22;2661;50.786;12.728;2023-07-30T02:53:18;15.20;99.90
5276;DHT22;2661;50.786;12.728;2023-07-30T02:55:45;15.20;99.90
5276;DHT22;2661;50.786;12.728;2023-07-30T02:58:11;15.20;99.90
5276;DHT22;2661;50.786;12.728;2023-07-30T03:00:38;15.20;99.90
5276;DHT22;2661;50.786;12.728;2023-07-30T03:03:05;15.20;99.90
5276;DHT22;2661;50.786;12.728;2023-07-30T03:05:31;15.20;99.90
5276;DHT22;2661;50.786;12.728;2023-07-30T03:07:58;15.20;99.90
5276;DHT22;2661;50.786;12.728;2023-07-30T03:10:25;15.20;99.90
5276;DHT22;2661;50.786;12.728;2023-07-30T03:12:51;15.30;99.90
5276;DHT22;2661;50.786;12.728;2023-07-30T03:15:18;15.20;99.90
5276;DHT22;2661;50.786;12.728;2023-07-30T03:17:44;15.10;99.90
5276;DHT22;2661;50.786;12.728;2023-07-30T03:20:11;15.10;56.40
5276;DHT22;2661;50.786;12.728;2023-07-30T03:22:38;15.20;59.30
5276;DHT22;2661;50.786;12.728;2023-07-30T03:25:05;15.10;35.50
5276;DHT22;2661;50.786;12.728;2023-07-30T03:27:31;15.20;99.90
5276;DHT22;2661;50.786;12.728;2023-07-30T03:29:58;15.20;99.90
5276;DHT22;2661;50.786;12.728;2023-07-30T03:32:25;15.20;99.90
5276;DHT22;2661;50.786;12.728;2023-07-30T03:34:51;15.20;99.90
5276;DHT22;2661;50.786;12.728;2023-07-30T03:37:18;15.20;90.90
5276;DHT22;2661;50.786;12.728;2023-07-30T03:39:45;15.20;99.90
5276;DHT22;2661;50.786;12.728;2023-07-30T03:42:11;15.20;97.60
5276;DHT22;2661;50.786;12.728;2023-07-30T03:44:38;15.30;50.90
5276;DHT22;2661;50.786;12.728;2023-07-30T03:47:04;15.30;55.50
5276;DHT22;2661;50.786;12.728;2023-07-30T03:49:31;15.30;63.00
5276;DHT22;2661;50.786;12.728;2023-07-30T03:51:58;15.30;76.50
5276;DHT22;2661;50.786;12.728;2023-07-30T03:54:24;15.30;15.80
5276;DHT22;2661;50.786;12.728;2023-07-30T03:56:51;15.30;1.00
5276;DHT22;2661;50.786;12.728;2023-07-30T03:59:17;15.30;1.00
5276;DHT22;2661;50.786;12.728;2023-07-30T04:01:44;15.30;1.00
5276;DHT22;2661;50.786;12.728;2023-07-30T04:04:10;15.30;1.00
5276;DHT22;2661;50.786;12.728;2023-07-30T04:06:37;15.30;1.00
5276;DHT22;2661;50.786;12.728;2023-07-30T04:09:04;15.30;1.00
5276;DHT22;2661;50.786;12.728;2023-07-30T04:11:30;15.40;8.10
5276;DHT22;2661;50.786;12.728;2023-07-30T04:13:57;15.40;17.00
5276;DHT22;2661;50.786;12.728;2023-07-30T04:16:24;15.40;55.40
5276;DHT22;2661;50.786;12.728;2023-07-30T04:18:50;15.50;58.00
5276;DHT22;2661;50.786;12.728;2023-07-30T04:21:17;15.50;55.00
5276;DHT22;2661;50.786;12.728;2023-07-30T04:23:44;15.50;93.30
5276;DHT22;2661;50.786;12.728;2023-07-30T04:26:10;15.60;73.50
5276;DHT22;2661;50.786;12.728;2023-07-30T04:28:37;15.60;99.90
5276;DHT22;2661;50.786;12.728;2023-07-30T04:31:03;15.70;99.90
5276;DHT22;2661;50.786;12.728;2023-07-30T04:33:30;15.60;1.00
5276;DHT22;2661;50.786;12.728;2023-07-30T04:35:57;15.70;1.00
5276;DHT22;2661;50.786;12.728;2023-07-30T04:38:24;15.70;26.00
5276;DHT22;2661;50.786;12.728;2023-07-30T04:40:50;15.80;37.70
5276;DHT22;2661;50.786;12.728;2023-07-30T04:43:17;15.80;74.90
5276;DHT22;2661;50.786;12.728;2023-07-30T04:45:44;15.90;55.50
5276;DHT22;2661;50.786;12.728;2023-07-30T04:48:11;15.90;17.10
5276;DHT22;2661;50.786;12.728;2023-07-30T04:50:37;15.90;1.60
5276;DHT22;2661;50.786;12.728;2023-07-30T04:53:06;15.90;1.00
5276;DHT22;2661;50.786;12.728;2023-07-30T04:55:32;16.00;1.00
5276;DHT22;2661;50.786;12.728;2023-07-30T04:58:00;16.00;1.00
5276;DHT22;2661;50.786;12.728;2023-07-30T05:00:27;16.10;1.00
5276;DHT22;2661;50.786;12.728;2023-07-30T05:02:53;16.20;1.00
5276;DHT22;2661;50.786;12.728;2023-07-30T05:05:20;16.30;44.80
5276;DHT22;2661;50.786;12.728;2023-07-30T05:07:47;16.40;80.10
5276;DHT22;2661;50.786;12.728;2023-07-30T05:10:13;16.40;23.50
5276;DHT22;2661;50.786;12.728;2023-07-30T05:12:40;16.50;44.20
5276;DHT22;2661;50.786;12.728;2023-07-30T05:15:07;16.50;76.80
5276;DHT22;2661;50.786;12.728;2023-07-30T05:17:33;16.50;91.40
5276;DHT22;2661;50.786;12.728;2023-07-30T05:20:00;16.60;99.90
5276;DHT22;2661;50.786;12.728;2023-07-30T05:22:27;16.60;99.90
5276;DHT22;2661;50.786;12.728;2023-07-30T05:24:53;16.70;99.90
5276;DHT22;2661;50.786;12.728;2023-07-30T05:27:20;16.70;98.40
5276;DHT22;2661;50.786;12.728;2023-07-30T05:29:46;16.70;99.90
5276;DHT22;2661;50.786;12.728;2023-07-30T05:32:15;16.70;93.20
5276;DHT22;2661;50.786;12.728;2023-07-30T05:34:41;16.80;48.80
5276;DHT22;2661;50.786;12.728;2023-07-30T05:37:08;16.80;21.90
5276;DHT22;2661;50.786;12.728;2023-07-30T05:39:35;16.80;34.10
5276;DHT22;2661;50.786;12.728;2023-07-30T05:42:02;16.80;75.90
5276;DHT22;2661;50.786;12.728;2023-07-30T05:44:28;16.80;74.80
5276;DHT22;2661;50.786;12.728;2023-07-30T05:46:55;16.80;72.10
5276;DHT22;2661;50.786;12.728;2023-07-30T05:49:22;16.80;81.50
5276;DHT22;2661;50.786;12.728;2023-07-30T05:51:48;16.90;96.50
5276;DHT22;2661;50.786;12.728;2023-07-30T05:54:15;16.90;28.80
5276;DHT22;2661;50.786;12.728;2023-07-30T05:56:42;16.90;82.10
5276;DHT22;2661;50.786;12.728;2023-07-30T05:59:08;17.00;99.90
5276;DHT22;2661;50.786;12.728;2023-07-30T06:01:35;17.10;99.90
5276;DHT22;2661;50.786;12.728;2023-07-30T06:04:02;17.10;77.10
5276;DHT22;2661;50.786;12.728;2023-07-30T06:06:29;17.20;43.90
5276;DHT22;2661;50.786;12.728;2023-07-30T06:08:56;17.20;43.70
5276;DHT22;2661;50.786;12.728;2023-07-30T06:11:22;17.20;52.90
5276;DHT22;2661;50.786;12.728;2023-07-30T06:13:49;17.30;35.80
5276;DHT22;2661;50.786;12.728;2023-07-30T06:16:16;17.40;57.60
5276;DHT22;2661;50.786;12.728;2023-07-30T06:18:43;17.50;19.80
5276;DHT22;2661;50.786;12.728;2023-07-30T06:21:09;17.60;1.00
5276;DHT22;2661;50.786;12.728;2023-07-30T06:23:36;17.70;1.00
5276;DHT22;2661;50.786;12.728;2023-07-30T06:26:03;17.80;1.00
5276;DHT22;2661;50.786;12.728;2023-07-30T06:28:29;17.90;1.00
5276;DHT22;2661;50.786;12.728;2023-07-30T06:30:59;17.90;1.00
5276;DHT22;2661;50.786;12.728;2023-07-30T06:33:25;17.90;99.90
5276;DHT22;2661;50.786;12.728;2023-07-30T06:35:52;18.00;21.90
5276;DHT22;2661;50.786;12.728;2023-07-30T06:38:19;18.10;99.90
5276;DHT22;2661;50.786;12.728;2023-07-30T06:40:46;18.10;99.90
5276;DHT22;2661;50.786;12.728;2023-07-30T06:43:12;18.20;99.90
5276;DHT22;2661;50.786;12.728;2023-07-30T06:45:39;18.20;99.90
5276;DHT22;2661;50.786;12.728;2023-07-30T06:48:06;18.30;99.90
5276;DHT22;2661;50.786;12.728;2023-07-30T06:50:32;18.30;1.00
5276;DHT22;2661;50.786;12.728;2023-07-30T06:52:59;18.40;25.80
5276;DHT22;2661;50.786;12.728;2023-07-30T06:55:25;18.40;99.90
5276;DHT22;2661;50.786;12.728;2023-07-30T06:57:52;18.40;1.00
5276;DHT22;2661;50.786;12.728;2023-07-30T07:00:19;18.40;99.90
5276;DHT22;2661;50.786;12.728;2023-07-30T07:02:48;18.40;99.90
5276;DHT22;2661;50.786;12.728;2023-07-30T07:05:15;18.50;99.90
5276;DHT22;2661;50.786;12.728;2023-07-30T07:07:42;18.50;99.90
5276;DHT22;2661;50.786;12.728;2023-07-30T07:10:09;18.50;99.90
5276;DHT22;2661;50.786;12.728;2023-07-30T07:12:37;18.60;99.90
5276;DHT22;2661;50.786;12.728;2023-07-30T07:15:05;18.50;39.20
5276;DHT22;2661;50.786;12.728;2023-07-30T07:17:31;18.50;1.00
5276;DHT22;2661;50.786;12.728;2023-07-30T07:19:58;18.40;1.00
5276;DHT22;2661;50.786;12.728;2023-07-30T07:22:25;18.40;1.00
5276;DHT22;2661;50.786;12.728;2023-07-30T07:24:52;18.40;1.00
5276;DHT22;2661;50.786;12.728;2023-07-30T07:27:19;18.50;99.90
5276;DHT22;2661;50.786;12.728;2023-07-30T07:29:47;18.60;99.90
5276;DHT22;2661;50.786;12.728;2023-07-30T07:32:13;18.60;1.00
5276;DHT22;2661;50.786;12.728;2023-07-30T07:34:40;18.60;1.00
5276;DHT22;2661;50.786;12.728;2023-07-30T07:37:06;18.60;1.00
5276;DHT22;2661;50.786;12.728;2023-07-30T07:39:33;18.60;99.90
5276;DHT22;2661;50.786;12.728;2023-07-30T07:42:00;18.60;99.90
5276;DHT22;2661;50.786;12.728;2023-07-30T07:44:26;18.60;17.30
5276;DHT22;2661;50.786;12.728;2023-07-30T07:46:53;18.60;1.00
5276;DHT22;2661;50.786;12.728;2023-07-30T07:49:20;18.60;1.00
5276;DHT22;2661;50.786;12.728;2023-07-30T07:51:46;18.60;99.90
5276;DHT22;2661;50.786;12.728;2023-07-30T07:54:13;18.60;45.10
5276;DHT22;2661;50.786;12.728;2023-07-30T07:56:39;18.60;1.00
5276;DHT22;2661;50.786;12.728;2023-07-30T07:59:06;18.70;1.00
5276;DHT22;2661;50.786;12.728;2023-07-30T08:01:33;18.70;1.00
5276;DHT22;2661;50.786;12.728;2023-07-30T08:03:59;18.80;1.00
5276;DHT22;2661;50.786;12.728;2023-07-30T08:06:26;18.80;1.00
5276;DHT22;2661;50.786;12.728;2023-07-30T08:08:53;18.80;1.00
5276;DHT22;2661;50.786;12.728;2023-07-30T08:11:20;18.80;1.00
5276;DHT22;2661;50.786;12.728;2023-07-30T08:13:46;18.90;1.00
5276;DHT22;2661;50.786;12.728;2023-07-30T08:16:13;19.00;1.00
5276;DHT22;2661;50.786;12.728;2023-07-30T08:18:40;19.20;1.00
5276;DHT22;2661;50.786;12.728;2023-07-30T08:21:06;19.30;1.00
5276;DHT22;2661;50.786;12.728;2023-07-30T08:23:33;19.40;1.00
5276;DHT22;2661;50.786;12.728;2023-07-30T08:26:00;19.50;1.00
5276;DHT22;2661;50.786;12.728;2023-07-30T08:28:26;19.60;1.00
5276;DHT22;2661;50.786;12.728;2023-07-30T08:30:53;19.60;1.00
5276;DHT22;2661;50.786;12.728;2023-07-30T08:33:25;19.70;1.00
5276;DHT22;2661;50.786;12.728;2023-07-30T08:35:56;19.80;1.00
5276;DHT22;2661;50.786;12.728;2023-07-30T08:38:23;20.00;1.00
5276;DHT22;2661;50.786;12.728;2023-07-30T08:40:50;20.10;1.00
5276;DHT22;2661;50.786;12.728;2023-07-30T08:43:20;20.10;1.00
5276;DHT22;2661;50.786;12.728;2023-07-30T08:45:46;20.30;1.00
5276;DHT22;2661;50.786;12.728;2023-07-30T08:48:13;20.40;1.00
5276;DHT22;2661;50.786;12.728;2023-07-30T08:50:40;20.50;1.00
5276;DHT22;2661;50.786;12.728;2023-07-30T08:53:07;20.50;1.00
5276;DHT22;2661;50.786;12.728;2023-07-30T08:55:34;20.60;1.00
5276;DHT22;2661;50.786;12.728;2023-07-30T08:58:01;20.70;1.00
5276;DHT22;2661;50.786;12.728;2023-07-30T09:00:30;20.70;1.00
5276;DHT22;2661;50.786;12.728;2023-07-30T09:03:00;20.60;1.00
5276;DHT22;2661;50.786;12.728;2023-07-30T09:05:29;20.70;1.00
5276;DHT22;2661;50.786;12.728;2023-07-30T09:07:56;20.70;1.00
5276;DHT22;2661;50.786;12.728;2023-07-30T09:10:23;20.70;1.00
5276;DHT22;2661;50.786;12.728;2023-07-30T09:12:53;20.80;1.00
5276;DHT22;2661;50.786;12.728;2023-07-30T09:15:31;20.90;1.00
5276;DHT22;2661;50.786;12.728;2023-07-30T09:17:59;20.90;1.00
5276;DHT22;2661;50.786;12.728;2023-07-30T09:20:26;20.90;1.00
5276;DHT22;2661;50.786;12.728;2023-07-30T09:22:55;20.90;1.00
5276;DHT22;2661;50.786;12.728;2023-07-30T09:25:22;20.90;1.00
5276;DHT22;2661;50.786;12.728;2023-07-30T09:27:52;20.80;1.00
5276;DHT22;2661;50.786;12.728;2023-07-30T09:30:22;20.80;1.00
5276;DHT22;2661;50.786;12.728;2023-07-30T09:32:54;20.60;1.00
5276;DHT22;2661;50.786;12.728;2023-07-30T09:35:21;20.50;1.00
5276;DHT22;2661;50.786;12.728;2023-07-30T09:37:48;20.50;1.00
5276;DHT22;2661;50.786;12.728;2023-07-30T09:40:15;20.50;1.00
5276;DHT22;2661;50.786;12.728;2023-07-30T09:42:48;20.50;1.00
5276;DHT22;2661;50.786;12.728;2023-07-30T09:45:19;20.50;1.00
5276;DHT22;2661;50.786;12.728;2023-07-30T09:47:47;20.40;1.00
5276;DHT22;2661;50.786;12.728;2023-07-30T09:50:14;20.50;1.00
5276;DHT22;2661;50.786;12.728;2023-07-30T09:52:44;20.60;1.00
5276;DHT22;2661;50.786;12.728;2023-07-30T09:55:11;20.60;1.00
5276;DHT22;2661;50.786;12.728;2023-07-30T09:57:39;20.80;1.00
5276;DHT22;2661;50.786;12.728;2023-07-30T10:00:06;20.80;99.90
5276;DHT22;2661;50.786;12.728;2023-07-30T10:02:37;20.80;1.00
5276;DHT22;2661;50.786;12.728;2023-07-30T10:05:06;20.80;1.00
5276;DHT22;2661;50.786;12.728;2023-07-30T10:07:34;20.90;1.00
5276;DHT22;2661;50.786;12.728;2023-07-30T10:10:00;21.00;1.00
5276;DHT22;2661;50.786;12.728;2023-07-30T10:12:32;21.10;1.00
5276;DHT22;2661;50.786;12.728;2023-07-30T10:15:00;21.20;99.90
5276;DHT22;2661;50.786;12.728;2023-07-30T10:17:26;21.30;1.00
5276;DHT22;2661;50.786;12.728;2023-07-30T10:19:55;21.20;1.00
5276;DHT22;2661;50.786;12.728;2023-07-30T10:22:22;21.20;1.00
5276;DHT22;2661;50.786;12.728;2023-07-30T10:24:57;21.20;1.00
5276;DHT22;2661;50.786;12.728;2023-07-30T10:27:25;21.20;1.00
5276;DHT22;2661;50.786;12.728;2023-07-30T10:30:08;21.20;1.00
5276;DHT22;2661;50.786;12.728;2023-07-30T10:32:39;21.20;1.00
5276;DHT22;2661;50.786;12.728;2023-07-30T10:35:05;21.30;1.00
5276;DHT22;2661;50.786;12.728;2023-07-30T10:37:32;21.30;1.00
5276;DHT22;2661;50.786;12.728;2023-07-30T10:39:59;21.30;1.00
5276;DHT22;2661;50.786;12.728;2023-07-30T10:42:35;21.30;1.00
5276;DHT22;2661;50.786;12.728;2023-07-30T10:45:01;21.40;1.00
5276;DHT22;2661;50.786;12.728;2023-07-30T10:47:34;21.40;1.00
5276;DHT22;2661;50.786;12.728;2023-07-30T10:50:03;21.40;1.00
5276;DHT22;2661;50.786;12.728;2023-07-30T10:52:29;21.60;1.00
5276;DHT22;2661;50.786;12.728;2023-07-30T10:55:00;21.80;1.00
5276;DHT22;2661;50.786;12.728;2023-07-30T10:57:30;22.00;1.00
5276;DHT22;2661;50.786;12.728;2023-07-30T10:59:58;22.10;1.00
5276;DHT22;2661;50.786;12.728;2023-07-30T11:02:25;22.20;1.00
5276;DHT22;2661;50.786;12.728;2023-07-30T11:04:54;22.30;1.00
5276;DHT22;2661;50.786;12.728;2023-07-30T11:07:21;22.30;1.00
5276;DHT22;2661;50.786;12.728;2023-07-30T11:09:57;22.30;1.00
5276;DHT22;2661;50.786;12.728;2023-07-30T11:12:24;22.40;1.00
5276;DHT22;2661;50.786;12.728;2023-07-30T11:14:51;22.40;1.00
5276;DHT22;2661;50.786;12.728;2023-07-30T11:17:17;22.40;1.00
5276;DHT22;2661;50.786;12.728;2023-07-30T11:19:44;22.40;1.00
5276;DHT22;2661;50.786;12.728;2023-07-30T11:22:11;22.40;1.00
5276;DHT22;2661;50.786;12.728;2023-07-30T11:24:37;22.40;1.00
5276;DHT22;2661;50.786;12.728;2023-07-30T11:27:05;22.40;1.00
5276;DHT22;2661;50.786;12.728;2023-07-30T11:29:31;22.40;1.00
5276;DHT22;2661;50.786;12.728;2023-07-30T11:31:58;22.40;1.00
5276;DHT22;2661;50.786;12.728;2023-07-30T11:34:26;22.40;1.00
5276;DHT22;2661;50.786;12.728;2023-07-30T11:36:53;22.30;1.00
5276;DHT22;2661;50.786;12.728;2023-07-30T11:39:20;22.20;1.00
5276;DHT22;2661;50.786;12.728;2023-07-30T11:41:47;22.10;1.00
5276;DHT22;2661;50.786;12.728;2023-07-30T11:44:30;22.00;1.00
5276;DHT22;2661;50.786;12.728;2023-07-30T11:46:57;22.00;1.00
5276;DHT22;2661;50.786;12.728;2023-07-30T11:49:23;21.90;1.00
5276;DHT22;2661;50.786;12.728;2023-07-30T11:51:50;22.00;1.00
5276;DHT22;2661;50.786;12.728;2023-07-30T11:54:19;22.00;1.00
5276;DHT22;2661;50.786;12.728;2023-07-30T11:56:46;22.10;1.00
5276;DHT22;2661;50.786;12.728;2023-07-30T11:59:12;22.30;1.00
5276;DHT22;2661;50.786;12.728;2023-07-30T12:01:39;22.40;1.00
5276;DHT22;2661;50.786;12.728;2023-07-30T12:04:08;22.60;1.00
5276;DHT22;2661;50.786;12.728;2023-07-30T12:06:45;22.80;1.00
5276;DHT22;2661;50.786;12.728;2023-07-30T12:09:16;22.80;1.00
5276;DHT22;2661;50.786;12.728;2023-07-30T12:14:16;23.00;1.00
5276;DHT22;2661;50.786;12.728;2023-07-30T12:16:43;23.10;1.00
5276;DHT22;2661;50.786;12.728;2023-07-30T12:19:09;23.20;1.00
5276;DHT22;2661;50.786;12.728;2023-07-30T12:21:36;23.30;1.00
5276;DHT22;2661;50.786;12.728;2023-07-30T12:24:05;23.30;1.00
5276;DHT22;2661;50.786;12.728;2023-07-30T12:26:32;23.40;1.00
5276;DHT22;2661;50.786;12.728;2023-07-30T12:28:58;23.30;1.00
5276;DHT22;2661;50.786;12.728;2023-07-30T12:31:25;23.30;1.00
5276;DHT22;2661;50.786;12.728;2023-07-30T12:33:52;23.30;1.00
5276;DHT22;2661;50.786;12.728;2023-07-30T12:36:18;23.40;51.60
5276;DHT22;2661;50.786;12.728;2023-07-30T12:38:45;23.40;1.00
5276;DHT22;2661;50.786;12.728;2023-07-30T12:41:12;23.50;1.00
5276;DHT22;2661;50.786;12.728;2023-07-30T12:43:39;23.60;99.90
5276;DHT22;2661;50.786;12.728;2023-07-30T12:46:06;23.60;1.00
5276;DHT22;2661;50.786;12.728;2023-07-30T12:48:33;23.70;59.30
5276;DHT22;2661;50.786;12.728;2023-07-30T12:50:59;23.70;1.00
5276;DHT22;2661;50.786;12.728;2023-07-30T12:53:26;23.50;1.00
5276;DHT22;2661;50.786;12.728;2023-07-30T12:55:52;23.40;1.00
5276;DHT22;2661;50.786;12.728;2023-07-30T12:58:19;23.30;1.00
5276;DHT22;2661;50.786;12.728;2023-07-30T13:00:46;23.30;1.00
5276;DHT22;2661;50.786;12.728;2023-07-30T13:03:12;23.10;1.00
5276;DHT22;2661;50.786;12.728;2023-07-30T13:05:39;23.10;1.00
5276;DHT22;2661;50.786;12.728;2023-07-30T13:08:06;23.00;1.00
5276;DHT22;2661;50.786;12.728;2023-07-30T13:10:33;22.90;1.00
5276;DHT22;2661;50.786;12.728;2023-07-30T13:12:59;22.90;1.00
5276;DHT22;2661;50.786;12.728;2023-07-30T13:15:26;22.80;1.00
5276;DHT22;2661;50.786;12.728;2023-07-30T13:17:54;22.80;1.00
5276;DHT22;2661;50.786;12.728;2023-07-30T13:20:21;22.80;1.00
5276;DHT22;2661;50.786;12.728;2023-07-30T13:22:47;22.70;1.00
5276;DHT22;2661;50.786;12.728;2023-07-30T13:25:14;22.80;1.00
5276;DHT22;2661;50.786;12.728;2023-07-30T13:27:41;22.80;1.00
5276;DHT22;2661;50.786;12.728;2023-07-30T13:30:08;22.70;27.70
5276;DHT22;2661;50.786;12.728;2023-07-30T13:32:34;22.60;1.00
5276;DHT22;2661;50.786;12.728;2023-07-30T13:35:01;22.50;1.00
5276;DHT22;2661;50.786;12.728;2023-07-30T13:37:28;22.30;1.00
5276;DHT22;2661;50.786;12.728;2023-07-30T13:39:54;22.10;1.00
5276;DHT22;2661;50.786;12.728;2023-07-30T13:42:21;21.90;1.00
5276;DHT22;2661;50.786;12.728;2023-07-30T13:44:48;21.80;1.00
5276;DHT22;2661;50.786;12.728;2023-07-30T13:47:14;21.50;1.00
5276;DHT22;2661;50.786;12.728;2023-07-30T13:49:41;21.00;1.00
5276;DHT22;2661;50.786;12.728;2023-07-30T13:52:08;20.40;1.00
5276;DHT22;2661;50.786;12.728;2023-07-30T13:54:34;19.90;1.00
5276;DHT22;2661;50.786;12.728;2023-07-30T13:57:04;19.40;1.00
5276;DHT22;2661;50.786;12.728;2023-07-30T13:59:31;18.90;1.00
5276;DHT22;2661;50.786;12.728;2023-07-30T14:01:58;18.60;1.00
5276;DHT22;2661;50.786;12.728;2023-07-30T14:04:25;18.50;99.90
5276;DHT22;2661;50.786;12.728;2023-07-30T14:06:51;18.50;62.40
5276;DHT22;2661;50.786;12.728;2023-07-30T14:09:18;18.50;99.90
5276;DHT22;2661;50.786;12.728;2023-07-30T14:11:44;18.70;99.90
5276;DHT22;2661;50.786;12.728;2023-07-30T14:14:13;18.90;99.90
5276;DHT22;2661;50.786;12.728;2023-07-30T14:16:40;19.00;99.90
5276;DHT22;2661;50.786;12.728;2023-07-30T14:19:06;19.40;99.90
5276;DHT22;2661;50.786;12.728;2023-07-30T14:21:33;19.50;99.90
5276;DHT22;2661;50.786;12.728;2023-07-30T14:24:00;19.60;6.00
5276;DHT22;2661;50.786;12.728;2023-07-30T14:26:26;19.70;1.00
5276;DHT22;2661;50.786;12.728;2023-07-30T14:28:53;19.80;1.00
5276;DHT22;2661;50.786;12.728;2023-07-30T14:31:19;19.90;1.00
5276;DHT22;2661;50.786;12.728;2023-07-30T14:33:46;20.00;1.00
5276;DHT22;2661;50.786;12.728;2023-07-30T14:36:13;20.10;1.00
5276;DHT22;2661;50.786;12.728;2023-07-30T14:38:39;20.10;1.00
5276;DHT22;2661;50.786;12.728;2023-07-30T14:41:06;20.20;1.00
5276;DHT22;2661;50.786;12.728;2023-07-30T14:43:34;20.20;1.00
5276;DHT22;2661;50.786;12.728;2023-07-30T14:46:01;20.20;1.00
5276;DHT22;2661;50.786;12.728;2023-07-30T14:48:28;20.30;1.00
5276;DHT22;2661;50.786;12.728;2023-07-30T14:50:55;20.30;1.00
5276;DHT22;2661;50.786;12.728;2023-07-30T14:53:21;20.30;1.00
5276;DHT22;2661;50.786;12.728;2023-07-30T14:55:48;20.30;1.00
5276;DHT22;2661;50.786;12.728;2023-07-30T14:58:15;20.30;1.00
5276;DHT22;2661;50.786;12.728;2023-07-30T15:00:41;20.20;1.00
5276;DHT22;2661;50.786;12.728;2023-07-30T15:03:09;20.20;1.00
5276;DHT22;2661;50.786;12.728;2023-07-30T15:05:36;20.00;1.00
5276;DHT22;2661;50.786;12.728;2023-07-30T15:08:05;20.00;1.00
5276;DHT22;2661;50.786;12.728;2023-07-30T15:10:32;19.80;1.00
5276;DHT22;2661;50.786;12.728;2023-07-30T15:12:59;19.80;1.00
5276;DHT22;2661;50.786;12.728;2023-07-30T15:15:25;19.70;1.00
5276;DHT22;2661;50.786;12.728;2023-07-30T15:17:52;19.70;1.00
5276;DHT22;2661;50.786;12.728;2023-07-30T15:20:19;19.80;99.90
5276;DHT22;2661;50.786;12.728;2023-07-30T15:22:46;20.10;99.90
5276;DHT22;2661;50.786;12.728;2023-07-30T15:25:13;20.20;1.00
5276;DHT22;2661;50.786;12.728;2023-07-30T15:27:40;20.30;1.00
5276;DHT22;2661;50.786;12.728;2023-07-30T15:30:06;20.30;1.00
5276;DHT22;2661;50.786;12.728;2023-07-30T15:32:33;20.20;1.00
5276;DHT22;2661;50.786;12.728;2023-07-30T15:35:06;19.90;1.00
5276;DHT22;2661;50.786;12.728;2023-07-30T15:37:33;19.70;1.00
5276;DHT22;2661;50.786;12.728;2023-07-30T15:40:00;19.50;1.00
5276;DHT22;2661;50.786;12.728;2023-07-30T15:42:28;19.40;1.00
5276;DHT22;2661;50.786;12.728;2023-07-30T15:44:55;19.20;99.90
5276;DHT22;2661;50.786;12.728;2023-07-30T15:47:21;19.00;99.90
5276;DHT22;2661;50.786;12.728;2023-07-30T15:49:48;18.90;1.00
5276;DHT22;2661;50.786;12.728;2023-07-30T15:52:15;18.90;1.00
5276;DHT22;2661;50.786;12.728;2023-07-30T15:54:41;18.80;1.00
5276;DHT22;2661;50.786;12.728;2023-07-30T15:57:08;18.70;1.00
5276;DHT22;2661;50.786;12.728;2023-07-30T15:59:38;18.70;1.00